createdAt,value
2018-03-15T00:00:50.194Z,92.80
2018-03-15T00:02:13.358Z,92.75
2018-03-15T00:03:40.656Z,92.75
2018-03-15T00:05:11.849Z,92.64
2018-03-15T00:06:34.897Z,92.83
2018-03-15T00:08:01.879Z,92.95
2018-03-15T00:09:29.124Z,93.00
2018-03-15T00:10:56.291Z,93.04
2018-03-15T00:12:27.400Z,92.97
2018-03-15T00:13:54.562Z,92.78
2018-03-15T00:15:21.807Z,92.68
2018-03-15T00:16:44.978Z,92.77
2018-03-15T00:18:12.287Z,92.96
2018-03-15T00:19:43.420Z,93.08
2018-03-15T00:21:06.718Z,93.22
2018-03-15T00:22:37.836Z,93.20
2018-03-15T00:24:00.735Z,92.37
2018-03-15T00:25:28.028Z,92.07
2018-03-15T00:26:55.192Z,91.74
2018-03-15T00:28:26.305Z,91.65
2018-03-15T00:29:49.510Z,91.47
2018-03-15T00:31:20.626Z,91.54
2018-03-15T00:32:43.830Z,91.07
2018-03-15T00:34:10.997Z,91.06
2018-03-15T00:35:38.274Z,91.22
2018-03-15T00:37:09.363Z,90.95
2018-03-15T00:38:32.646Z,90.99
2018-03-15T00:40:03.735Z,91.04
2018-03-15T00:41:31.021Z,91.35
2018-03-15T00:42:58.308Z,91.52
2018-03-15T00:44:25.605Z,91.64
2018-03-15T00:45:48.736Z,91.19
2018-03-15T00:47:19.995Z,91.02
2018-03-15T00:48:47.254Z,90.83
2018-03-15T00:50:10.317Z,90.85
2018-03-15T00:51:37.560Z,90.71
2018-03-15T00:53:04.641Z,91.04
2018-03-15T00:54:35.611Z,90.92
2018-03-15T00:55:58.669Z,91.29
2018-03-15T00:57:29.819Z,91.22
2018-03-15T00:58:57.050Z,91.01
2018-03-15T01:00:20.263Z,90.92
2018-03-15T01:01:47.575Z,90.96
2018-03-15T01:03:19.854Z,90.94
2018-03-15T01:04:41.867Z,91.13
2018-03-15T01:06:08.884Z,91.01
2018-03-15T01:07:36.126Z,90.96
2018-03-15T01:09:03.423Z,91.17
2018-03-15T01:10:34.573Z,91.29
2018-03-15T01:12:01.826Z,91.06
2018-03-15T01:13:29.079Z,91.12
2018-03-15T01:14:52.349Z,90.62
2018-03-15T01:16:23.543Z,90.95
2018-03-15T01:17:46.772Z,90.80
2018-03-15T01:19:13.946Z,90.94
2018-03-15T01:20:41.163Z,91.01
2018-03-15T01:22:08.416Z,91.01
2018-03-15T01:23:39.573Z,91.41
2018-03-15T01:25:06.662Z,90.86
2018-03-15T01:26:33.902Z,91.31
2018-03-15T01:28:01.038Z,91.25
2018-03-15T01:29:28.279Z,91.17
2018-03-15T01:30:51.418Z,91.57
2018-03-15T01:32:22.674Z,91.28
2018-03-15T01:33:49.945Z,91.46
2018-03-15T01:35:17.095Z,91.83
2018-03-15T01:36:40.238Z,91.51
2018-03-15T01:38:07.500Z,91.78
2018-03-15T01:39:34.749Z,91.70
2018-03-15T01:41:05.872Z,91.64
2018-03-15T01:42:29.003Z,91.71
2018-03-15T01:44:00.013Z,91.70
2018-03-15T01:45:23.179Z,91.64
2018-03-15T01:46:50.510Z,91.54
2018-03-15T01:48:21.805Z,91.46
2018-03-15T01:49:48.971Z,91.58
2018-03-15T01:51:16.171Z,91.34
2018-03-15T01:52:39.275Z,91.48
2018-03-15T01:54:06.447Z,91.49
2018-03-15T01:55:37.629Z,91.93
2018-03-15T01:57:04.907Z,91.97
2018-03-15T01:58:28.099Z,92.16
2018-03-15T01:59:59.407Z,92.14
2018-03-15T02:01:22.596Z,91.91
2018-03-15T02:02:49.825Z,91.91
2018-03-15T02:04:20.996Z,91.81
2018-03-15T02:05:48.198Z,91.99
2018-03-15T02:07:11.472Z,91.99
2018-03-15T02:08:39.043Z,91.94
2018-03-15T02:10:10.229Z,92.16
2018-03-15T02:11:33.273Z,92.45
2018-03-15T02:13:00.431Z,92.44
2018-03-15T02:14:31.640Z,92.43
2018-03-15T02:15:58.734Z,92.36
2018-03-15T02:17:26.138Z,92.51
2018-03-15T02:18:49.209Z,92.46
2018-03-15T02:20:16.469Z,92.52
2018-03-15T02:21:43.548Z,92.49
2018-03-15T02:23:14.819Z,92.21
2018-03-15T02:24:37.720Z,92.22
2018-03-15T02:26:04.880Z,92.54
2018-03-15T02:27:31.980Z,92.53
2018-03-15T02:28:59.396Z,92.42
2018-03-15T02:30:30.391Z,92.57
2018-03-15T02:31:57.596Z,92.52
2018-03-15T02:33:20.941Z,92.55
2018-03-15T02:34:51.955Z,92.05
2018-03-15T02:36:19.009Z,92.05
2018-03-15T02:37:42.243Z,92.61
2018-03-15T02:39:13.320Z,92.76
2018-03-15T02:40:40.451Z,92.53
2018-03-15T02:42:03.381Z,92.86
2018-03-15T02:43:34.480Z,92.86
2018-03-15T02:45:01.673Z,92.71
2018-03-15T02:46:24.886Z,92.82
2018-03-15T02:47:56.108Z,92.96
2018-03-15T02:49:23.211Z,92.50
2018-03-15T02:50:46.394Z,92.61
2018-03-15T02:52:17.620Z,92.83
2018-03-15T02:53:44.995Z,92.60
2018-03-15T02:55:12.034Z,93.16
2018-03-15T02:56:39.296Z,92.83
2018-03-15T02:58:06.268Z,92.72
2018-03-15T02:59:33.580Z,93.23
2018-03-15T03:00:56.742Z,93.08
2018-03-15T03:02:23.895Z,93.16
2018-03-15T03:03:54.997Z,92.89
2018-03-15T03:05:22.331Z,92.87
2018-03-15T03:06:45.456Z,93.02
2018-03-15T03:08:16.665Z,93.29
2018-03-15T03:09:43.797Z,92.67
2018-03-15T03:11:10.915Z,93.33
2018-03-15T03:12:38.040Z,93.12
2018-03-15T03:14:00.944Z,93.28
2018-03-15T03:15:28.210Z,92.94
2018-03-15T03:16:55.352Z,92.93
2018-03-15T03:18:22.578Z,93.10
2018-03-15T03:19:53.773Z,92.80
2018-03-15T03:21:20.905Z,92.86
2018-03-15T03:22:44.148Z,92.75
2018-03-15T03:24:11.371Z,92.81
2018-03-15T03:25:42.543Z,92.84
2018-03-15T03:27:09.734Z,92.58
2018-03-15T03:28:32.875Z,92.80
2018-03-15T03:30:04.055Z,92.89
2018-03-15T03:31:27.308Z,93.17
2018-03-15T03:32:58.323Z,93.26
2018-03-15T03:34:21.547Z,92.81
2018-03-15T03:35:52.806Z,93.01
2018-03-15T03:37:20.038Z,93.22
2018-03-15T03:38:47.225Z,93.06
2018-03-15T03:40:10.538Z,93.05
2018-03-15T03:41:41.623Z,92.87
2018-03-15T03:43:04.673Z,92.62
2018-03-15T03:44:31.884Z,92.94
2018-03-15T03:46:03.048Z,93.08
2018-03-15T03:47:26.381Z,92.68
2018-03-15T03:48:57.543Z,92.81
2018-03-15T03:50:24.687Z,93.05
2018-03-15T03:51:47.845Z,92.84
2018-03-15T03:53:18.962Z,92.91
2018-03-15T03:54:46.277Z,92.77
2018-03-15T03:56:09.510Z,92.65
2018-03-15T03:57:40.630Z,92.51
2018-03-15T03:59:07.680Z,92.25
2018-03-15T04:00:31.045Z,92.63
2018-03-15T04:02:02.253Z,92.83
2018-03-15T04:03:29.357Z,92.24
2018-03-15T04:04:56.313Z,92.29
2018-03-15T04:06:19.505Z,92.71
2018-03-15T04:07:46.704Z,92.39
2018-03-15T04:09:14.051Z,92.74
2018-03-15T04:10:45.237Z,92.84
2018-03-15T04:12:08.639Z,92.66
2018-03-15T04:13:39.797Z,92.91
2018-03-15T04:15:06.714Z,92.40
2018-03-15T04:16:33.889Z,92.62
2018-03-15T04:18:01.024Z,92.50
2018-03-15T04:19:24.366Z,92.39
2018-03-15T04:20:51.548Z,92.61
2018-03-15T04:22:18.819Z,92.58
2018-03-15T04:23:46.115Z,92.58
2018-03-15T04:25:13.372Z,92.20
2018-03-15T04:26:44.429Z,92.52
2018-03-15T04:28:11.429Z,92.68
2018-03-15T04:29:34.615Z,92.61
2018-03-15T04:31:01.811Z,92.61
2018-03-15T04:32:32.938Z,92.79
2018-03-15T04:34:00.102Z,93.08
2018-03-15T04:35:23.393Z,93.05
2018-03-15T04:36:50.627Z,93.19
2018-03-15T04:38:21.876Z,93.13
2018-03-15T04:39:45.090Z,93.50
2018-03-15T04:41:16.316Z,93.25
2018-03-15T04:42:43.297Z,93.27
2018-03-15T04:44:06.543Z,93.39
2018-03-15T04:45:33.691Z,93.28
2018-03-15T04:47:00.872Z,93.21
2018-03-15T04:48:28.210Z,93.11
2018-03-15T04:49:59.551Z,93.07
2018-03-15T04:51:26.636Z,93.19
2018-03-15T04:52:53.805Z,92.69
2018-03-15T04:54:20.947Z,92.57
2018-03-15T04:55:48.125Z,91.86
2018-03-15T04:57:15.643Z,92.09
2018-03-15T04:58:42.762Z,92.07
2018-03-15T05:00:06.068Z,92.19
2018-03-15T05:01:37.026Z,92.12
2018-03-15T05:03:04.124Z,91.93
2018-03-15T05:04:27.369Z,92.04
2018-03-15T05:05:54.577Z,91.84
2018-03-15T05:07:21.803Z,91.98
2018-03-15T05:08:48.955Z,91.78
2018-03-15T05:10:16.116Z,91.78
2018-03-15T05:11:47.187Z,92.03
2018-03-15T05:13:14.380Z,91.80
2018-03-15T05:14:41.322Z,91.97
2018-03-15T05:16:04.283Z,91.81
2018-03-15T05:17:35.388Z,91.45
2018-03-15T05:20:29.694Z,91.56
2018-03-15T05:21:53.061Z,91.23
2018-03-15T05:23:24.202Z,91.25
2018-03-15T05:24:47.397Z,91.23
2018-03-15T05:26:18.563Z,90.76
2018-03-15T05:27:41.766Z,90.72
2018-03-15T05:29:08.949Z,91.04
2018-03-15T05:30:40.169Z,91.59
2018-03-15T05:32:03.144Z,91.79
2018-03-15T05:33:30.426Z,91.53
2018-03-15T05:35:01.520Z,90.94
2018-03-15T05:36:28.726Z,91.14
2018-03-15T05:37:55.805Z,90.86
2018-03-15T05:39:18.960Z,91.15
2018-03-15T05:40:50.194Z,90.94
2018-03-15T05:42:17.258Z,90.69
2018-03-15T05:43:44.452Z,90.94
2018-03-15T05:45:11.623Z,90.58
2018-03-15T05:46:38.783Z,90.06
2018-03-15T05:48:01.921Z,90.30
2018-03-15T05:49:29.095Z,90.41
2018-03-15T05:50:56.360Z,90.22
2018-03-15T05:52:23.602Z,90.73
2018-03-15T05:53:54.684Z,90.35
2018-03-15T05:55:21.828Z,90.23
2018-03-15T05:56:49.046Z,90.56
2018-03-15T05:58:12.174Z,89.97
2018-03-15T05:59:39.357Z,90.21
2018-03-15T06:01:10.417Z,89.40
2018-03-15T06:02:37.642Z,89.74
2018-03-15T06:04:05.078Z,89.49
2018-03-15T06:05:32.030Z,89.43
2018-03-15T06:06:59.229Z,88.80
2018-03-15T06:08:26.435Z,89.27
2018-03-15T06:09:49.534Z,88.84
2018-03-15T06:11:20.518Z,88.92
2018-03-15T06:12:47.557Z,88.28
2018-03-15T06:14:14.679Z,88.12
2018-03-15T06:15:37.902Z,88.73
2018-03-15T06:17:08.932Z,88.29
2018-03-15T06:18:36.040Z,87.86
2018-03-15T06:19:59.111Z,87.23
2018-03-15T06:21:26.288Z,87.29
2018-03-15T06:22:57.476Z,86.87
2018-03-15T06:24:24.581Z,86.46
2018-03-15T06:25:51.680Z,86.17
2018-03-15T06:27:14.905Z,85.75
2018-03-15T06:28:41.908Z,85.50
2018-03-15T06:30:12.877Z,85.69
2018-03-15T06:31:36.286Z,85.77
2018-03-15T06:33:07.406Z,85.19
2018-03-15T06:34:30.800Z,85.21
2018-03-15T06:36:01.928Z,85.23
2018-03-15T06:37:28.964Z,84.36
2018-03-15T06:38:56.187Z,84.13
2018-03-15T06:40:19.505Z,84.84
2018-03-15T06:41:46.410Z,84.95
2018-03-15T06:43:17.544Z,84.04
2018-03-15T06:44:44.707Z,84.47
2018-03-15T06:46:11.860Z,84.15
2018-03-15T06:47:38.936Z,84.11
2018-03-15T06:49:06.077Z,84.70
2018-03-15T06:50:33.299Z,84.15
2018-03-15T06:51:56.537Z,82.83
2018-03-15T06:53:27.596Z,82.84
2018-03-15T06:54:54.671Z,82.47
2018-03-15T06:56:21.905Z,82.15
2018-03-15T06:57:45.036Z,81.88
2018-03-15T06:59:16.193Z,81.28
2018-03-15T07:00:39.455Z,81.59
2018-03-15T07:02:10.498Z,81.56
2018-03-15T07:03:37.703Z,81.74
2018-03-15T07:05:05.018Z,80.77
2018-03-15T07:06:28.191Z,81.11
2018-03-15T07:07:59.159Z,81.36
2018-03-15T07:09:26.319Z,80.89
2018-03-15T07:10:49.655Z,80.36
2018-03-15T07:12:16.883Z,80.39
2018-03-15T07:13:43.993Z,79.60
2018-03-15T07:15:15.129Z,80.26
2018-03-15T07:16:42.350Z,79.58
2018-03-15T07:18:09.448Z,78.40
2018-03-15T07:19:36.650Z,78.57
2018-03-15T07:21:04.088Z,78.49
2018-03-15T07:22:26.958Z,78.33
2018-03-15T07:23:57.878Z,78.27
2018-03-15T07:25:21.142Z,77.94
2018-03-15T07:26:52.164Z,78.33
2018-03-15T07:28:19.285Z,79.18
2018-03-15T07:29:46.362Z,78.15
2018-03-15T07:31:09.361Z,78.58
2018-03-15T07:32:36.658Z,78.14
2018-03-15T07:34:03.871Z,77.56
2018-03-15T07:35:34.752Z,77.82
2018-03-15T07:37:01.764Z,77.16
2018-03-15T07:38:28.963Z,77.35
2018-03-15T07:39:56.201Z,78.62
2018-03-15T07:41:23.391Z,78.62
2018-03-15T07:42:46.581Z,78.25
2018-03-15T07:44:17.844Z,78.51
2018-03-15T07:45:40.988Z,78.04
2018-03-15T07:47:12.093Z,77.42
2018-03-15T07:48:35.290Z,77.32
2018-03-15T07:50:06.310Z,77.41
2018-03-15T07:51:33.456Z,78.18
2018-03-15T07:53:00.778Z,76.65
2018-03-15T07:54:28.029Z,77.63
2018-03-15T07:55:51.201Z,76.83
2018-03-15T07:57:22.392Z,75.41
2018-03-15T07:58:49.476Z,75.89
2018-03-15T08:00:12.714Z,76.11
2018-03-15T08:01:43.951Z,76.75
2018-03-15T08:03:11.078Z,78.17
2018-03-15T08:04:34.178Z,77.75
2018-03-15T08:06:01.089Z,77.14
2018-03-15T08:07:28.200Z,76.96
2018-03-15T08:08:55.408Z,76.35
2018-03-15T08:10:22.510Z,76.05
2018-03-15T08:11:53.706Z,76.70
2018-03-15T08:13:16.844Z,75.49
2018-03-15T08:14:48.023Z,76.29
2018-03-15T08:16:15.230Z,74.64
2018-03-15T08:17:42.448Z,75.45
2018-03-15T08:19:09.598Z,75.21
2018-03-15T08:20:36.715Z,75.82
2018-03-15T08:21:59.926Z,74.39
2018-03-15T08:23:30.966Z,74.55
2018-03-15T08:24:58.112Z,74.36
2018-03-15T08:26:21.333Z,74.81
2018-03-15T08:27:48.570Z,74.70
2018-03-15T08:29:15.826Z,75.14
2018-03-15T08:30:46.958Z,73.97
2018-03-15T08:32:10.197Z,74.15
2018-03-15T08:33:37.446Z,74.90
2018-03-15T08:35:04.568Z,74.83
2018-03-15T08:36:35.612Z,74.47
2018-03-15T08:37:58.810Z,74.52
2018-03-15T08:39:29.997Z,74.76
2018-03-15T08:40:53.169Z,74.19
2018-03-15T08:42:20.268Z,74.83
2018-03-15T08:43:47.430Z,74.38
2018-03-15T08:45:14.338Z,75.24
2018-03-15T08:46:45.340Z,74.64
2018-03-15T08:48:12.351Z,73.66
2018-03-15T08:49:39.503Z,74.08
2018-03-15T08:51:02.532Z,74.37
2018-03-15T08:52:33.857Z,75.65
2018-03-15T08:53:57.069Z,73.06
2018-03-15T08:55:24.260Z,73.76
2018-03-15T08:56:55.440Z,73.36
2018-03-15T08:58:18.542Z,73.49
2018-03-15T08:59:49.684Z,74.99
2018-03-15T09:01:16.880Z,75.57
2018-03-15T09:02:43.914Z,75.37
2018-03-15T09:04:07.192Z,73.66
2018-03-15T09:05:38.356Z,73.14
2018-03-15T09:07:05.401Z,73.79
2018-03-15T09:08:28.433Z,74.98
2018-03-15T09:09:59.504Z,73.88
2018-03-15T09:11:22.710Z,73.20
2018-03-15T09:12:53.818Z,73.67
2018-03-15T09:14:21.129Z,73.12
2018-03-15T09:15:44.293Z,73.20
2018-03-15T09:17:15.567Z,73.26
2018-03-15T09:18:42.801Z,73.11
2018-03-15T09:20:09.936Z,73.08
2018-03-15T09:21:36.893Z,72.86
2018-03-15T09:23:00.102Z,72.82
2018-03-15T09:24:31.324Z,73.15
2018-03-15T09:25:54.460Z,73.02
2018-03-15T09:27:21.631Z,74.67
2018-03-15T09:28:48.956Z,73.34
2018-03-15T09:30:20.189Z,74.54
2018-03-15T09:31:47.317Z,72.54
2018-03-15T09:33:14.586Z,73.34
2018-03-15T09:34:37.787Z,73.29
2018-03-15T09:36:08.947Z,72.76
2018-03-15T09:37:35.913Z,72.48
2018-03-15T09:39:03.136Z,73.22
2018-03-15T09:40:30.372Z,74.28
2018-03-15T09:41:57.598Z,73.82
2018-03-15T09:43:20.730Z,73.94
2018-03-15T09:44:48.126Z,73.45
2018-03-15T09:46:15.445Z,73.10
2018-03-15T09:47:42.530Z,72.51
2018-03-15T09:49:13.713Z,72.98
2018-03-15T09:50:40.980Z,72.94
2018-03-15T09:52:04.068Z,74.43
2018-03-15T09:53:31.056Z,73.33
2018-03-15T09:54:58.410Z,73.68
2018-03-15T09:56:25.744Z,72.60
2018-03-15T09:57:53.157Z,72.93
2018-03-15T09:59:20.305Z,73.82
2018-03-15T10:00:47.564Z,74.58
2018-03-15T10:02:14.791Z,73.34
2018-03-15T10:03:41.896Z,73.72
2018-03-15T10:05:13.108Z,73.56
2018-03-15T10:06:36.405Z,73.54
2018-03-15T10:08:07.525Z,74.59
2018-03-15T10:09:34.928Z,73.65
2018-03-15T10:11:01.628Z,73.66
2018-03-15T10:12:24.891Z,74.37
2018-03-15T10:13:56.104Z,74.97
2018-03-15T10:15:19.206Z,73.79
2018-03-15T10:16:50.436Z,74.10
2018-03-15T10:18:13.615Z,74.34
2018-03-15T10:19:40.895Z,75.04
2018-03-15T10:21:08.154Z,74.23
2018-03-15T10:22:39.153Z,74.89
2018-03-15T10:24:06.302Z,74.68
2018-03-15T10:25:29.468Z,74.37
2018-03-15T10:27:00.526Z,75.29
2018-03-15T10:28:27.453Z,75.48
2018-03-15T10:29:50.780Z,74.97
2018-03-15T10:31:17.930Z,74.72
2018-03-15T10:32:45.204Z,74.80
2018-03-15T10:34:12.360Z,74.76
2018-03-15T10:35:39.554Z,74.50
2018-03-15T10:37:06.673Z,74.70
2018-03-15T10:38:37.818Z,74.47
2018-03-15T10:40:04.796Z,75.50
2018-03-15T10:41:28.061Z,75.28
2018-03-15T10:42:59.315Z,74.78
2018-03-15T10:44:26.448Z,74.34
2018-03-15T10:45:49.540Z,75.12
2018-03-15T10:47:16.848Z,74.01
2018-03-15T10:48:47.902Z,74.05
2018-03-15T10:50:11.160Z,74.20
2018-03-15T10:51:38.330Z,75.07
2018-03-15T10:53:05.186Z,75.45
2018-03-15T10:54:32.109Z,75.00
2018-03-15T10:56:03.286Z,74.48
2018-03-15T10:57:26.362Z,75.19
2018-03-15T10:58:57.524Z,75.09
2018-03-15T11:00:20.557Z,74.55
2018-03-15T11:01:51.718Z,75.23
2018-03-15T11:03:14.896Z,75.01
2018-03-15T11:04:42.077Z,74.69
2018-03-15T11:06:09.313Z,76.17
2018-03-15T11:07:40.424Z,74.33
2018-03-15T11:09:07.595Z,73.58
2018-03-15T11:10:34.692Z,74.32
2018-03-15T11:11:57.895Z,73.65
2018-03-15T11:13:25.139Z,73.39
2018-03-15T11:14:56.302Z,74.57
2018-03-15T11:16:19.413Z,73.33
2018-03-15T11:17:46.647Z,73.67
2018-03-15T11:19:14.012Z,74.39
2018-03-15T11:20:41.108Z,73.05
2018-03-15T11:22:08.122Z,72.61
2018-03-15T11:23:35.380Z,73.04
2018-03-15T11:25:06.311Z,73.50
2018-03-15T11:26:29.625Z,73.02
2018-03-15T11:28:00.789Z,73.87
2018-03-15T11:29:28.041Z,74.23
2018-03-15T11:30:51.239Z,74.48
2018-03-15T11:32:22.446Z,73.83
2018-03-15T11:33:45.603Z,74.71
2018-03-15T11:35:12.797Z,72.67
2018-03-15T11:36:43.989Z,73.31
2018-03-15T11:38:11.150Z,73.36
2018-03-15T11:39:34.319Z,72.99
2018-03-15T11:41:05.275Z,72.94
2018-03-15T11:42:28.661Z,72.40
2018-03-15T11:43:55.929Z,71.43
2018-03-15T11:45:27.106Z,72.84
2018-03-15T11:46:54.296Z,72.24
2018-03-15T11:48:17.479Z,71.49
2018-03-15T11:49:44.639Z,72.28
2018-03-15T11:51:15.956Z,72.92
2018-03-15T11:52:43.225Z,72.62
2018-03-15T11:54:10.303Z,73.19
2018-03-15T11:55:33.356Z,72.68
2018-03-15T11:57:00.743Z,72.24
2018-03-15T11:58:31.591Z,73.93
2018-03-15T11:59:58.831Z,73.35
2018-03-15T12:01:26.074Z,73.95
2018-03-15T12:02:53.091Z,72.83
2018-03-15T12:04:16.265Z,72.53
2018-03-15T12:05:47.516Z,72.31
2018-03-15T12:07:14.700Z,72.88
2018-03-15T12:08:37.883Z,73.90
2018-03-15T12:10:04.987Z,73.29
2018-03-15T12:11:36.134Z,73.24
2018-03-15T12:12:59.440Z,73.62
2018-03-15T12:14:26.505Z,74.38
2018-03-15T12:15:57.684Z,72.85
2018-03-15T12:17:24.931Z,72.86
2018-03-15T12:18:48.216Z,72.59
2018-03-15T12:20:19.438Z,73.12
2018-03-15T12:21:46.678Z,73.98
2018-03-15T12:23:09.798Z,74.05
2018-03-15T12:24:40.987Z,73.89
2018-03-15T12:26:08.211Z,73.70
2018-03-15T12:27:31.142Z,74.27
2018-03-15T12:28:58.289Z,74.07
2018-03-15T12:30:29.378Z,74.01
2018-03-15T12:31:56.517Z,73.50
2018-03-15T12:33:19.709Z,73.98
2018-03-15T12:34:47.017Z,74.70
2018-03-15T12:36:14.271Z,73.94
2018-03-15T12:37:41.759Z,74.85
2018-03-15T12:39:08.814Z,74.82
2018-03-15T12:40:39.999Z,74.38
2018-03-15T12:42:07.139Z,75.45
2018-03-15T12:43:30.406Z,74.57
2018-03-15T12:45:01.706Z,74.50
2018-03-15T12:46:24.993Z,73.68
2018-03-15T12:47:52.362Z,73.96
2018-03-15T12:49:19.499Z,74.59
2018-03-15T12:50:46.877Z,74.20
2018-03-15T12:52:18.184Z,73.29
2018-03-15T12:53:41.405Z,73.84
2018-03-15T12:55:08.639Z,74.14
2018-03-15T12:56:39.778Z,74.80
2018-03-15T12:58:07.018Z,74.01
2018-03-15T12:59:34.277Z,74.81
2018-03-15T13:01:01.307Z,74.89
2018-03-15T13:02:28.592Z,74.89
2018-03-15T13:03:55.926Z,74.84
2018-03-15T13:05:19.088Z,74.25
2018-03-15T13:06:50.117Z,75.56
2018-03-15T13:08:13.273Z,73.52
2018-03-15T13:09:40.555Z,73.06
2018-03-15T13:11:11.695Z,73.34
2018-03-15T13:12:38.610Z,72.86
2018-03-15T13:14:05.656Z,73.82
2018-03-15T13:15:28.972Z,73.67
2018-03-15T13:16:56.008Z,73.69
2018-03-15T13:18:27.232Z,74.22
2018-03-15T13:19:54.513Z,74.29
2018-03-15T13:21:17.774Z,73.52
2018-03-15T13:22:45.056Z,73.50
2018-03-15T13:24:16.295Z,73.34
2018-03-15T13:25:43.557Z,74.96
2018-03-15T13:27:10.484Z,73.96
2018-03-15T13:28:37.626Z,74.75
2018-03-15T13:30:00.767Z,74.75
2018-03-15T13:31:28.111Z,74.37
2018-03-15T13:32:59.321Z,73.72
2018-03-15T13:34:22.522Z,73.90
2018-03-15T13:35:53.682Z,73.46
2018-03-15T13:37:16.935Z,75.69
2018-03-15T13:38:44.205Z,75.40
2018-03-15T13:40:15.345Z,75.23
2018-03-15T13:41:38.678Z,76.26
2018-03-15T13:43:05.872Z,75.03
2018-03-15T13:44:37.072Z,75.55
2018-03-15T13:46:04.228Z,75.11
2018-03-15T13:47:31.451Z,75.06
2018-03-15T13:48:54.572Z,75.18
2018-03-15T13:50:25.784Z,74.93
2018-03-15T13:51:53.015Z,75.25
2018-03-15T13:53:16.232Z,77.00
2018-03-15T13:54:43.391Z,76.05
2018-03-15T13:56:14.591Z,74.53
2018-03-15T13:57:41.828Z,75.03
2018-03-15T13:59:05.074Z,75.30
2018-03-15T14:00:36.182Z,73.26
2018-03-15T14:02:07.384Z,74.77
2018-03-15T14:03:26.623Z,73.55
2018-03-15T14:04:57.794Z,73.24
2018-03-15T14:06:25.008Z,74.73
2018-03-15T14:07:48.216Z,73.97
2018-03-15T14:09:19.403Z,75.35
2018-03-15T14:10:42.562Z,74.82
2018-03-15T14:12:13.799Z,75.85
2018-03-15T14:13:37.026Z,74.92
2018-03-15T14:15:04.008Z,74.88
2018-03-15T14:16:34.909Z,75.01
2018-03-15T14:17:58.313Z,74.76
2018-03-15T14:19:29.360Z,75.10
2018-03-15T14:20:52.670Z,74.74
2018-03-15T14:22:19.877Z,74.73
2018-03-15T14:23:50.798Z,73.68
2018-03-15T14:25:14.092Z,74.22
2018-03-15T14:26:45.251Z,73.89
2018-03-15T14:28:08.405Z,73.08
2018-03-15T14:29:35.692Z,74.20
2018-03-15T14:31:02.687Z,73.31
2018-03-15T14:32:29.994Z,74.04
2018-03-15T14:33:57.120Z,75.03
2018-03-15T14:35:28.445Z,73.74
2018-03-15T14:36:55.832Z,74.54
2018-03-15T14:38:23.234Z,75.63
2018-03-15T14:39:50.398Z,74.88
2018-03-15T14:41:17.547Z,73.94
2018-03-15T14:42:44.659Z,76.20
2018-03-15T14:44:07.958Z,74.35
2018-03-15T14:45:35.097Z,74.21
2018-03-15T14:47:02.334Z,75.29
2018-03-15T14:48:29.457Z,74.87
2018-03-15T14:49:56.727Z,75.74
2018-03-15T14:51:27.903Z,75.49
2018-03-15T14:52:55.176Z,74.27
2018-03-15T14:54:18.406Z,74.53
2018-03-15T14:55:49.884Z,74.58
2018-03-15T14:57:12.893Z,75.73
2018-03-15T14:58:44.173Z,74.14
2018-03-15T15:00:07.427Z,74.45
2018-03-15T15:01:34.497Z,74.98
2018-03-15T15:03:05.642Z,74.42
2018-03-15T15:04:28.693Z,74.70
2018-03-15T15:05:55.319Z,75.48
2018-03-15T15:07:26.579Z,75.32
2018-03-15T15:08:49.792Z,74.48
2018-03-15T15:10:16.988Z,74.43
2018-03-15T15:11:48.067Z,74.62
2018-03-15T15:13:15.172Z,73.64
2018-03-15T15:14:38.334Z,75.23
2018-03-15T15:16:09.892Z,74.09
2018-03-15T15:17:32.829Z,74.91
2018-03-15T15:19:04.056Z,74.90
2018-03-15T15:20:27.075Z,75.59
2018-03-15T15:21:54.373Z,75.64
2018-03-15T15:23:21.501Z,75.64
2018-03-15T15:24:48.861Z,74.67
2018-03-15T15:26:20.012Z,74.68
2018-03-15T15:27:43.105Z,74.72
2018-03-15T15:29:14.337Z,73.83
2018-03-15T15:30:41.518Z,74.51
2018-03-15T15:32:08.594Z,73.73
2018-03-15T15:33:35.501Z,73.43
2018-03-15T15:34:58.805Z,74.67
2018-03-15T15:36:26.084Z,75.09
2018-03-15T15:37:53.384Z,73.68
2018-03-15T15:39:20.744Z,74.04
2018-03-15T15:40:51.918Z,74.82
2018-03-15T15:42:18.992Z,75.54
2018-03-15T15:43:46.298Z,74.41
2018-03-15T15:45:13.370Z,75.34
2018-03-15T15:46:40.552Z,75.48
2018-03-15T15:48:03.592Z,75.10
2018-03-15T15:49:34.779Z,75.53
2018-03-15T15:51:02.148Z,76.17
2018-03-15T15:52:25.395Z,75.41
2018-03-15T15:53:52.550Z,76.35
2018-03-15T15:55:19.761Z,76.18
2018-03-15T15:56:51.033Z,76.58
2018-03-15T15:58:14.122Z,76.40
2018-03-15T15:59:41.372Z,76.41
2018-03-15T16:01:08.631Z,75.06
2018-03-15T16:02:39.696Z,75.30
2018-03-15T16:04:02.936Z,75.48
2018-03-15T16:05:30.086Z,76.24
2018-03-15T16:06:57.146Z,75.71
2018-03-15T16:08:24.368Z,75.37
2018-03-15T16:09:55.541Z,76.46
2018-03-15T16:11:18.777Z,75.75
2018-03-15T16:12:50.050Z,76.17
2018-03-15T16:14:17.120Z,75.87
2018-03-15T16:15:44.157Z,75.83
2018-03-15T16:17:07.277Z,76.65
2018-03-15T16:18:34.323Z,75.55
2018-03-15T16:20:01.512Z,76.97
2018-03-15T16:21:28.685Z,75.96
2018-03-15T16:22:55.826Z,76.35
2018-03-15T16:24:26.999Z,75.73
2018-03-15T16:25:54.298Z,75.39
2018-03-15T16:27:17.371Z,75.85
2018-03-15T16:28:44.595Z,77.11
2018-03-15T16:30:11.892Z,76.44
2018-03-15T16:31:39.015Z,75.89
2018-03-15T16:33:06.279Z,75.68
2018-03-15T16:34:37.231Z,75.75
2018-03-15T16:36:00.536Z,75.74
2018-03-15T16:37:27.711Z,75.63
2018-03-15T16:38:54.868Z,76.17
2018-03-15T16:40:26.147Z,75.66
2018-03-15T16:41:49.410Z,76.04
2018-03-15T16:43:16.609Z,75.85
2018-03-15T16:44:47.584Z,76.56
2018-03-15T16:46:15.708Z,76.78
2018-03-15T16:47:38.015Z,76.63
2018-03-15T16:49:05.100Z,76.37
2018-03-15T16:50:36.105Z,76.20
2018-03-15T16:51:59.242Z,76.75
2018-03-15T16:53:30.265Z,76.14
2018-03-15T16:54:57.423Z,76.83
2018-03-15T16:56:20.676Z,77.14
2018-03-15T16:57:51.580Z,77.34
2018-03-15T16:59:14.699Z,77.37
2018-03-15T17:00:41.846Z,77.08
2018-03-15T17:02:09.070Z,76.96
2018-03-15T17:03:40.224Z,77.27
2018-03-15T17:05:07.122Z,76.95
2018-03-15T17:06:34.267Z,76.61
2018-03-15T17:08:01.472Z,77.01
2018-03-15T17:09:24.518Z,77.00
2018-03-15T17:10:51.555Z,77.30
2018-03-15T17:12:18.738Z,77.33
2018-03-15T17:13:49.765Z,77.73
2018-03-15T17:15:12.985Z,77.20
2018-03-15T17:16:39.932Z,77.53
2018-03-15T17:18:06.976Z,78.10
2018-03-15T17:19:38.125Z,77.51
2018-03-15T17:21:01.326Z,77.65
2018-03-15T17:22:28.348Z,77.70
2018-03-15T17:23:55.498Z,78.24
2018-03-15T17:25:22.658Z,77.88
2018-03-15T17:26:49.745Z,78.33
2018-03-15T17:28:16.980Z,77.67
2018-03-15T17:29:48.061Z,77.73
2018-03-15T17:31:11.157Z,78.54
2018-03-15T17:32:38.221Z,77.90
2018-03-15T17:34:05.355Z,78.32
2018-03-15T17:35:32.480Z,78.63
2018-03-15T17:37:03.670Z,78.52
2018-03-15T17:38:27.022Z,79.25
2018-03-15T17:39:53.992Z,79.36
2018-03-15T17:41:25.323Z,79.45
2018-03-15T17:42:52.464Z,78.93
2018-03-15T17:44:15.655Z,79.01
2018-03-15T17:45:46.955Z,79.21
2018-03-15T17:47:10.036Z,79.36
2018-03-15T17:48:37.190Z,79.53
2018-03-15T17:50:04.408Z,79.56
2018-03-15T17:51:31.464Z,78.16
2018-03-15T17:52:58.723Z,78.77
2018-03-15T17:54:29.783Z,79.53
2018-03-15T17:55:56.956Z,79.09
2018-03-15T17:57:20.163Z,79.41
2018-03-15T17:58:47.220Z,79.91
2018-03-15T18:00:18.402Z,78.93
2018-03-15T18:01:45.516Z,79.59
2018-03-15T18:03:08.538Z,79.74
2018-03-15T18:04:39.605Z,79.92
2018-03-15T18:06:02.764Z,79.96
2018-03-15T18:07:29.787Z,79.36
2018-03-15T18:09:00.786Z,80.19
2018-03-15T18:10:24.058Z,79.98
2018-03-15T18:11:51.382Z,80.12
2018-03-15T18:13:22.463Z,80.32
2018-03-15T18:14:45.645Z,79.74
2018-03-15T18:16:16.934Z,80.35
2018-03-15T18:17:44.083Z,80.29
2018-03-15T18:19:11.195Z,79.71
2018-03-15T18:20:34.385Z,79.96
2018-03-15T18:22:05.393Z,80.52
2018-03-15T18:23:28.620Z,80.59
2018-03-15T18:24:55.763Z,80.41
2018-03-15T18:26:26.823Z,80.62
2018-03-15T18:27:53.843Z,80.06
2018-03-15T18:29:20.698Z,80.77
2018-03-15T18:30:47.873Z,80.58
2018-03-15T18:32:15.032Z,80.06
2018-03-15T18:33:38.182Z,80.27
2018-03-15T18:35:05.405Z,80.41
2018-03-15T18:36:36.148Z,80.65
2018-03-15T18:37:59.359Z,80.76
2018-03-15T18:39:30.588Z,81.00
2018-03-15T18:40:57.703Z,81.30
2018-03-15T18:42:20.947Z,81.45
2018-03-15T18:43:52.005Z,80.95